This is the latest recevied weather packets stored in our database for station/object TG5ALY-16. If no packets are shown the sender has not sent any weather packets the latest 10 day(s).
| Time | Temp. | Humidity | Pressure | Rain* | Wind** | Luminosity | Snow |
|---|---|---|---|---|---|---|---|
| 1777878547 | 11.67° C | 94% | 1019 hPa | 0 mm | - | - | - |
| 1777877946 | 11.67° C | 94% | 1020 hPa | 0 mm | - | - | - |
| 1777877346 | 11.67° C | 93% | 1020 hPa | 0 mm | - | - | - |
| 1777876745 | 11.67° C | 93% | 1020 hPa | 0 mm | - | - | - |
| 1777876145 | 11.67° C | 93% | 1020 hPa | 0 mm | - | - | - |
| 1777875544 | 11.67° C | 93% | 1020 hPa | 0 mm | - | - | - |
| 1777874943 | 11.67° C | 95% | 1020 hPa | 0 mm | - | - | - |
| 1777874343 | 11.67° C | 95% | 1020 hPa | 0 mm | - | - | - |
| 1777873742 | 11.67° C | 95% | 1020 hPa | 0 mm | - | - | - |
| 1777873141 | 11.67° C | 95% | 1020 hPa | 0 mm | - | - | - |
| 1777872540 | 11.67° C | 97% | 1020 hPa | 0 mm | - | - | - |
| 1777871940 | 11.11° C | 97% | 1020 hPa | 0 mm | - | - | - |
| 1777871339 | 11.11° C | 97% | 1020 hPa | 0 mm | - | - | - |
| 1777870739 | 11.11° C | 97% | 1020 hPa | 0 mm | - | - | - |
| 1777870138 | 11.11° C | 97% | 1020 hPa | 0 mm | - | - | - |
| 1777869537 | 11.11° C | 97% | 1020 hPa | 0 mm | - | - | - |
| 1777868937 | 11.67° C | 97% | 1020 hPa | 0 mm | - | - | - |
| 1777868336 | 12.22° C | 97% | 1020 hPa | 0 mm | - | - | - |
| 1777867135 | 12.22° C | 97% | 1020 hPa | 0 mm | - | - | - |
| 1777866534 | 12.22° C | 97% | 1020 hPa | 0 mm | - | - | - |
| 1777865333 | 12.78° C | 97% | 1019 hPa | 0 mm | - | - | - |
| 1777847314 | 20° C | 60% | 1015 hPa | 0 mm | - | - | - |
| 1777846713 | 20° C | 60% | 1015 hPa | 0 mm | - | - | - |
| 1777844310 | 21.67° C | 45% | 1015 hPa | 0.25 mm | - | - | - |
| 1777843109 | 21.11° C | 46% | 1015 hPa | 0.25 mm | - | - | - |
* Rain latest hour (hover to see other rain measurements)
** Current wind speed in m/s (hover to see current wind gust speed)